sensor_id;sensor_type;location;lat;lon;timestamp;pressure;altitude;pressure_sealevel;temperature;humidity
19596;BME280;9945;46.010;8.946;2023-04-06T00:00:10;97448.22;;;10.11;45.19
19596;BME280;9945;46.010;8.946;2023-04-06T00:02:39;97443.66;;;10.13;44.70
19596;BME280;9945;46.010;8.946;2023-04-06T00:05:06;97444.53;;;9.84;44.75
19596;BME280;9945;46.010;8.946;2023-04-06T00:07:34;97442.16;;;9.62;45.20
19596;BME280;9945;46.010;8.946;2023-04-06T00:10:01;97435.97;;;9.63;45.88
19596;BME280;9945;46.010;8.946;2023-04-06T00:12:28;97438.31;;;9.57;45.64
19596;BME280;9945;46.010;8.946;2023-04-06T00:14:55;97440.50;;;9.52;44.82
19596;BME280;9945;46.010;8.946;2023-04-06T00:17:22;97438.44;;;9.55;46.37
19596;BME280;9945;46.010;8.946;2023-04-06T00:19:50;97437.06;;;9.51;44.44
19596;BME280;9945;46.010;8.946;2023-04-06T00:22:17;97439.25;;;9.56;46.55
19596;BME280;9945;46.010;8.946;2023-04-06T00:24:44;97439.00;;;9.59;46.18
19596;BME280;9945;46.010;8.946;2023-04-06T00:27:12;97440.34;;;9.53;45.60
19596;BME280;9945;46.010;8.946;2023-04-06T00:29:39;97437.47;;;9.46;46.53
19596;BME280;9945;46.010;8.946;2023-04-06T00:32:06;97432.81;;;9.69;44.37
19596;BME280;9945;46.010;8.946;2023-04-06T00:34:33;97433.78;;;9.68;45.32
19596;BME280;9945;46.010;8.946;2023-04-06T00:37:01;97438.34;;;9.85;43.32
19596;BME280;9945;46.010;8.946;2023-04-06T00:39:28;97438.06;;;9.69;44.85
19596;BME280;9945;46.010;8.946;2023-04-06T00:41:55;97440.09;;;9.56;44.48
19596;BME280;9945;46.010;8.946;2023-04-06T00:44:23;97435.00;;;9.35;45.09
19596;BME280;9945;46.010;8.946;2023-04-06T00:46:50;97437.13;;;9.21;45.82
19596;BME280;9945;46.010;8.946;2023-04-06T00:49:17;97432.75;;;9.31;46.32
19596;BME280;9945;46.010;8.946;2023-04-06T00:51:44;97439.25;;;9.46;45.16
19596;BME280;9945;46.010;8.946;2023-04-06T00:54:12;97434.16;;;9.35;46.46
19596;BME280;9945;46.010;8.946;2023-04-06T00:56:41;97439.91;;;9.38;45.05
19596;BME280;9945;46.010;8.946;2023-04-06T00:59:08;97441.44;;;9.41;46.92
19596;BME280;9945;46.010;8.946;2023-04-06T01:01:35;97439.72;;;9.11;47.46
19596;BME280;9945;46.010;8.946;2023-04-06T01:04:02;97436.56;;;9.07;45.42
19596;BME280;9945;46.010;8.946;2023-04-06T01:06:29;97436.63;;;9.27;46.71
19596;BME280;9945;46.010;8.946;2023-04-06T01:08:56;97439.25;;;9.46;44.28
19596;BME280;9945;46.010;8.946;2023-04-06T01:11:24;97438.00;;;9.40;45.58
19596;BME280;9945;46.010;8.946;2023-04-06T01:13:52;97434.47;;;9.51;46.28
19596;BME280;9945;46.010;8.946;2023-04-06T01:16:19;97436.13;;;9.52;45.60
19596;BME280;9945;46.010;8.946;2023-04-06T01:18:46;97447.59;;;9.21;46.57
19596;BME280;9945;46.010;8.946;2023-04-06T01:21:13;97436.38;;;8.90;47.19
19596;BME280;9945;46.010;8.946;2023-04-06T01:23:44;97441.84;;;8.87;45.89
19596;BME280;9945;46.010;8.946;2023-04-06T01:26:11;97440.59;;;8.81;46.24
19596;BME280;9945;46.010;8.946;2023-04-06T01:28:38;97442.94;;;8.84;45.78
19596;BME280;9945;46.010;8.946;2023-04-06T01:31:06;97438.34;;;8.77;47.50
19596;BME280;9945;46.010;8.946;2023-04-06T01:33:33;97436.19;;;8.82;47.08
19596;BME280;9945;46.010;8.946;2023-04-06T01:36:01;97438.69;;;8.83;47.34
19596;BME280;9945;46.010;8.946;2023-04-06T01:38:28;97433.84;;;8.79;46.18
19596;BME280;9945;46.010;8.946;2023-04-06T01:40:57;97441.53;;;8.80;46.50
19596;BME280;9945;46.010;8.946;2023-04-06T01:43:24;97439.75;;;8.81;45.28
19596;BME280;9945;46.010;8.946;2023-04-06T01:45:51;97431.88;;;8.71;46.26
19596;BME280;9945;46.010;8.946;2023-04-06T01:48:18;97433.97;;;8.77;45.42
19596;BME280;9945;46.010;8.946;2023-04-06T01:50:45;97436.84;;;8.74;45.89
19596;BME280;9945;46.010;8.946;2023-04-06T01:53:12;97445.28;;;8.57;47.56
19596;BME280;9945;46.010;8.946;2023-04-06T01:55:39;97442.69;;;8.57;46.85
19596;BME280;9945;46.010;8.946;2023-04-06T01:58:08;97430.81;;;8.73;46.01
19596;BME280;9945;46.010;8.946;2023-04-06T02:00:34;97432.63;;;8.83;47.40
19596;BME280;9945;46.010;8.946;2023-04-06T02:03:01;97436.28;;;8.70;46.31
19596;BME280;9945;46.010;8.946;2023-04-06T02:05:30;97439.19;;;8.77;46.87
19596;BME280;9945;46.010;8.946;2023-04-06T02:07:58;97436.03;;;8.73;47.84
19596;BME280;9945;46.010;8.946;2023-04-06T02:10:25;97435.56;;;8.59;46.75
19596;BME280;9945;46.010;8.946;2023-04-06T02:12:52;97442.72;;;8.66;46.03
19596;BME280;9945;46.010;8.946;2023-04-06T02:15:20;97447.91;;;8.57;47.01
19596;BME280;9945;46.010;8.946;2023-04-06T02:17:47;97448.72;;;8.57;46.48
19596;BME280;9945;46.010;8.946;2023-04-06T02:20:14;97440.00;;;8.78;47.56
19596;BME280;9945;46.010;8.946;2023-04-06T02:22:41;97449.41;;;8.59;46.83
19596;BME280;9945;46.010;8.946;2023-04-06T02:25:08;97445.09;;;8.49;47.25
19596;BME280;9945;46.010;8.946;2023-04-06T02:27:35;97449.22;;;8.51;46.98
19596;BME280;9945;46.010;8.946;2023-04-06T02:30:03;97443.69;;;8.45;48.24
19596;BME280;9945;46.010;8.946;2023-04-06T02:32:31;97442.03;;;8.23;48.39
19596;BME280;9945;46.010;8.946;2023-04-06T02:34:58;97452.69;;;8.31;48.68
19596;BME280;9945;46.010;8.946;2023-04-06T02:37:25;97455.31;;;8.31;47.71
19596;BME280;9945;46.010;8.946;2023-04-06T02:39:52;97449.78;;;8.13;48.67
19596;BME280;9945;46.010;8.946;2023-04-06T02:42:19;97445.09;;;8.28;48.71
19596;BME280;9945;46.010;8.946;2023-04-06T02:44:46;97449.13;;;8.32;48.59
19596;BME280;9945;46.010;8.946;2023-04-06T02:47:13;97441.97;;;8.34;47.40
19596;BME280;9945;46.010;8.946;2023-04-06T02:49:41;97441.56;;;8.18;49.02
19596;BME280;9945;46.010;8.946;2023-04-06T02:52:08;97448.41;;;8.30;48.39
19596;BME280;9945;46.010;8.946;2023-04-06T02:54:35;97448.84;;;8.14;48.78
19596;BME280;9945;46.010;8.946;2023-04-06T02:57:02;97449.97;;;8.01;49.36
19596;BME280;9945;46.010;8.946;2023-04-06T02:59:29;97450.59;;;7.93;49.71
19596;BME280;9945;46.010;8.946;2023-04-06T03:01:56;97447.25;;;8.02;49.44
19596;BME280;9945;46.010;8.946;2023-04-06T03:04:23;97447.75;;;7.96;49.85
19596;BME280;9945;46.010;8.946;2023-04-06T03:06:53;97449.97;;;8.01;48.52
19596;BME280;9945;46.010;8.946;2023-04-06T03:09:20;97453.78;;;7.96;49.09
19596;BME280;9945;46.010;8.946;2023-04-06T03:11:47;97448.81;;;7.93;48.79
19596;BME280;9945;46.010;8.946;2023-04-06T03:14:14;97446.03;;;8.06;48.45
19596;BME280;9945;46.010;8.946;2023-04-06T03:16:42;97447.19;;;8.13;48.34
19596;BME280;9945;46.010;8.946;2023-04-06T03:19:09;97450.75;;;8.12;48.70
19596;BME280;9945;46.010;8.946;2023-04-06T03:21:36;97449.09;;;8.11;48.51
19596;BME280;9945;46.010;8.946;2023-04-06T03:24:06;97452.09;;;8.07;48.76
19596;BME280;9945;46.010;8.946;2023-04-06T03:26:33;97450.41;;;8.26;48.97
19596;BME280;9945;46.010;8.946;2023-04-06T03:29:00;97446.94;;;8.16;48.42
19596;BME280;9945;46.010;8.946;2023-04-06T03:31:27;97442.88;;;8.23;48.00
19596;BME280;9945;46.010;8.946;2023-04-06T03:33:54;97451.66;;;8.22;48.00
19596;BME280;9945;46.010;8.946;2023-04-06T03:36:21;97448.00;;;8.14;49.13
19596;BME280;9945;46.010;8.946;2023-04-06T03:38:47;97449.28;;;7.98;48.35
19596;BME280;9945;46.010;8.946;2023-04-06T03:41:16;97445.13;;;8.17;48.55
19596;BME280;9945;46.010;8.946;2023-04-06T03:43:43;97449.41;;;8.18;48.78
19596;BME280;9945;46.010;8.946;2023-04-06T03:46:10;97455.38;;;8.09;48.79
19596;BME280;9945;46.010;8.946;2023-04-06T03:48:37;97448.78;;;8.05;49.35
19596;BME280;9945;46.010;8.946;2023-04-06T03:51:04;97453.50;;;7.79;48.72
19596;BME280;9945;46.010;8.946;2023-04-06T03:53:31;97460.00;;;7.84;49.73
19596;BME280;9945;46.010;8.946;2023-04-06T03:55:58;97457.81;;;7.69;49.57
19596;BME280;9945;46.010;8.946;2023-04-06T03:58:26;97463.75;;;7.91;48.97
19596;BME280;9945;46.010;8.946;2023-04-06T04:00:53;97462.88;;;8.02;49.30
19596;BME280;9945;46.010;8.946;2023-04-06T04:03:21;97462.25;;;8.10;48.25
19596;BME280;9945;46.010;8.946;2023-04-06T04:05:48;97462.31;;;7.98;49.20
19596;BME280;9945;46.010;8.946;2023-04-06T04:08:16;97462.38;;;8.08;49.20
19596;BME280;9945;46.010;8.946;2023-04-06T04:10:43;97467.78;;;7.95;49.41
19596;BME280;9945;46.010;8.946;2023-04-06T04:13:10;97468.66;;;7.85;48.96
19596;BME280;9945;46.010;8.946;2023-04-06T04:15:38;97476.16;;;7.67;50.12
19596;BME280;9945;46.010;8.946;2023-04-06T04:18:05;97471.16;;;7.75;49.90
19596;BME280;9945;46.010;8.946;2023-04-06T04:20:32;97472.53;;;7.58;49.87
19596;BME280;9945;46.010;8.946;2023-04-06T04:22:59;97473.84;;;7.85;49.48
19596;BME280;9945;46.010;8.946;2023-04-06T04:25:26;97481.63;;;7.96;48.27
19596;BME280;9945;46.010;8.946;2023-04-06T04:27:53;97474.53;;;7.98;49.06
19596;BME280;9945;46.010;8.946;2023-04-06T04:30:20;97467.06;;;7.93;49.49
19596;BME280;9945;46.010;8.946;2023-04-06T04:32:48;97473.28;;;7.81;48.69
19596;BME280;9945;46.010;8.946;2023-04-06T04:35:15;97465.59;;;8.01;49.13
19596;BME280;9945;46.010;8.946;2023-04-06T04:37:42;97471.63;;;7.80;48.79
19596;BME280;9945;46.010;8.946;2023-04-06T04:40:10;97475.84;;;7.92;48.49
19596;BME280;9945;46.010;8.946;2023-04-06T04:42:37;97476.19;;;7.99;48.21
19596;BME280;9945;46.010;8.946;2023-04-06T04:45:04;97470.41;;;7.84;48.95
19596;BME280;9945;46.010;8.946;2023-04-06T04:47:31;97484.09;;;7.66;49.45
19596;BME280;9945;46.010;8.946;2023-04-06T04:50:00;97480.53;;;7.67;49.81
19596;BME280;9945;46.010;8.946;2023-04-06T04:52:27;97479.88;;;7.65;49.77
19596;BME280;9945;46.010;8.946;2023-04-06T04:54:53;97481.03;;;7.72;50.25
19596;BME280;9945;46.010;8.946;2023-04-06T04:57:20;97482.22;;;7.68;50.41
19596;BME280;9945;46.010;8.946;2023-04-06T04:59:48;97480.91;;;7.73;49.88
19596;BME280;9945;46.010;8.946;2023-04-06T05:02:16;97478.66;;;7.69;50.47
19596;BME280;9945;46.010;8.946;2023-04-06T05:04:43;97481.06;;;7.49;50.48
19596;BME280;9945;46.010;8.946;2023-04-06T05:07:11;97482.28;;;7.34;51.00
19596;BME280;9945;46.010;8.946;2023-04-06T05:09:38;97484.16;;;7.43;50.75
19596;BME280;9945;46.010;8.946;2023-04-06T05:12:05;97487.38;;;7.36;51.51
19596;BME280;9945;46.010;8.946;2023-04-06T05:14:33;97482.78;;;7.17;52.28
19596;BME280;9945;46.010;8.946;2023-04-06T05:17:00;97490.47;;;7.30;51.79
19596;BME280;9945;46.010;8.946;2023-04-06T05:19:27;97487.38;;;7.47;51.87
19596;BME280;9945;46.010;8.946;2023-04-06T05:21:54;97487.25;;;7.48;51.41
19596;BME280;9945;46.010;8.946;2023-04-06T05:24:22;97484.72;;;7.58;51.47
19596;BME280;9945;46.010;8.946;2023-04-06T05:26:49;97496.00;;;7.47;51.87
19596;BME280;9945;46.010;8.946;2023-04-06T05:29:16;97493.75;;;7.54;51.71
19596;BME280;9945;46.010;8.946;2023-04-06T05:31:43;97494.88;;;7.72;50.34
19596;BME280;9945;46.010;8.946;2023-04-06T05:34:10;97491.19;;;7.75;50.36
19596;BME280;9945;46.010;8.946;2023-04-06T05:36:38;97498.97;;;7.86;50.36
19596;BME280;9945;46.010;8.946;2023-04-06T05:39:05;97498.75;;;7.78;49.66
19596;BME280;9945;46.010;8.946;2023-04-06T05:41:34;97498.44;;;7.71;50.75
19596;BME280;9945;46.010;8.946;2023-04-06T05:44:01;97487.31;;;7.58;50.35
19596;BME280;9945;46.010;8.946;2023-04-06T05:46:28;97497.50;;;7.61;50.67
19596;BME280;9945;46.010;8.946;2023-04-06T05:48:55;97498.72;;;7.57;50.86
19596;BME280;9945;46.010;8.946;2023-04-06T05:51:22;97492.69;;;7.56;51.21
19596;BME280;9945;46.010;8.946;2023-04-06T05:53:49;97499.63;;;7.67;51.21
19596;BME280;9945;46.010;8.946;2023-04-06T05:56:16;97500.44;;;7.68;51.60
19596;BME280;9945;46.010;8.946;2023-04-06T05:58:44;97499.38;;;7.70;50.91
19596;BME280;9945;46.010;8.946;2023-04-06T06:01:11;97508.13;;;7.80;50.20
19596;BME280;9945;46.010;8.946;2023-04-06T06:03:38;97502.69;;;8.04;49.54
19596;BME280;9945;46.010;8.946;2023-04-06T06:06:05;97508.38;;;8.41;48.43
19596;BME280;9945;46.010;8.946;2023-04-06T06:08:32;97508.94;;;8.65;48.40
19596;BME280;9945;46.010;8.946;2023-04-06T06:10:59;97509.75;;;8.66;46.91
19596;BME280;9945;46.010;8.946;2023-04-06T06:13:26;97508.88;;;8.86;46.06
19596;BME280;9945;46.010;8.946;2023-04-06T06:15:54;97498.41;;;9.07;45.96
19596;BME280;9945;46.010;8.946;2023-04-06T06:18:21;97503.00;;;9.24;45.37
19596;BME280;9945;46.010;8.946;2023-04-06T06:20:48;97501.94;;;9.36;45.42
19596;BME280;9945;46.010;8.946;2023-04-06T06:23:15;97503.75;;;9.45;46.42
19596;BME280;9945;46.010;8.946;2023-04-06T06:25:42;97509.00;;;9.55;46.36
19596;BME280;9945;46.010;8.946;2023-04-06T06:28:09;97502.72;;;9.67;45.78
19596;BME280;9945;46.010;8.946;2023-04-06T06:30:36;97497.50;;;9.96;43.47
19596;BME280;9945;46.010;8.946;2023-04-06T06:33:04;97506.03;;;10.08;43.05
19596;BME280;9945;46.010;8.946;2023-04-06T06:35:31;97496.97;;;10.31;43.17
19596;BME280;9945;46.010;8.946;2023-04-06T06:37:58;97493.94;;;10.36;43.37
19596;BME280;9945;46.010;8.946;2023-04-06T06:40:25;97491.81;;;10.68;42.61
19596;BME280;9945;46.010;8.946;2023-04-06T06:42:52;97493.56;;;10.87;42.00
19596;BME280;9945;46.010;8.946;2023-04-06T06:45:19;97489.47;;;11.12;42.05
19596;BME280;9945;46.010;8.946;2023-04-06T06:47:46;97489.16;;;11.15;41.48
19596;BME280;9945;46.010;8.946;2023-04-06T06:50:15;97492.13;;;11.39;41.56
19596;BME280;9945;46.010;8.946;2023-04-06T06:52:42;97488.56;;;11.30;41.21
19596;BME280;9945;46.010;8.946;2023-04-06T06:55:10;97484.38;;;11.37;41.09
19596;BME280;9945;46.010;8.946;2023-04-06T06:57:37;97487.38;;;11.70;40.83
19596;BME280;9945;46.010;8.946;2023-04-06T07:00:06;97494.47;;;12.05;39.74
19596;BME280;9945;46.010;8.946;2023-04-06T07:02:34;97491.91;;;12.31;39.86
19596;BME280;9945;46.010;8.946;2023-04-06T07:05:02;97488.16;;;12.33;38.96
19596;BME280;9945;46.010;8.946;2023-04-06T07:07:31;97491.16;;;12.38;39.27
19596;BME280;9945;46.010;8.946;2023-04-06T07:09:58;97495.78;;;12.44;38.63
19596;BME280;9945;46.010;8.946;2023-04-06T07:12:26;97490.84;;;12.41;40.17
19596;BME280;9945;46.010;8.946;2023-04-06T07:14:53;97487.91;;;12.70;38.65
19596;BME280;9945;46.010;8.946;2023-04-06T07:17:20;97489.38;;;12.91;39.16
19596;BME280;9945;46.010;8.946;2023-04-06T07:19:47;97480.41;;;13.01;39.01
19596;BME280;9945;46.010;8.946;2023-04-06T07:22:14;97481.00;;;13.21;38.37
19596;BME280;9945;46.010;8.946;2023-04-06T07:24:42;97478.13;;;13.40;38.29
19596;BME280;9945;46.010;8.946;2023-04-06T07:27:09;97479.00;;;13.57;39.22
19596;BME280;9945;46.010;8.946;2023-04-06T07:29:36;97483.28;;;13.58;39.28
19596;BME280;9945;46.010;8.946;2023-04-06T07:32:03;97481.94;;;13.54;39.13
19596;BME280;9945;46.010;8.946;2023-04-06T07:34:31;97483.59;;;13.55;38.56
19596;BME280;9945;46.010;8.946;2023-04-06T07:36:58;97479.88;;;13.74;39.39
19596;BME280;9945;46.010;8.946;2023-04-06T07:39:26;97476.09;;;13.76;38.78
19596;BME280;9945;46.010;8.946;2023-04-06T07:41:54;97482.19;;;13.77;37.73
19596;BME280;9945;46.010;8.946;2023-04-06T07:44:21;97479.06;;;13.81;37.25
19596;BME280;9945;46.010;8.946;2023-04-06T07:46:48;97483.84;;;13.86;36.32
19596;BME280;9945;46.010;8.946;2023-04-06T07:49:15;97476.78;;;13.86;37.57
19596;BME280;9945;46.010;8.946;2023-04-06T07:51:42;97486.66;;;14.00;37.57
19596;BME280;9945;46.010;8.946;2023-04-06T07:54:09;97480.00;;;13.64;36.52
19596;BME280;9945;46.010;8.946;2023-04-06T07:56:36;97487.50;;;13.93;37.66
19596;BME280;9945;46.010;8.946;2023-04-06T07:59:04;97481.25;;;14.10;36.97
19596;BME280;9945;46.010;8.946;2023-04-06T08:01:31;97479.28;;;14.20;36.33
19596;BME280;9945;46.010;8.946;2023-04-06T08:03:58;97483.56;;;14.29;36.52
19596;BME280;9945;46.010;8.946;2023-04-06T08:06:27;97476.34;;;14.39;36.79
19596;BME280;9945;46.010;8.946;2023-04-06T08:08:55;97474.38;;;14.42;36.83
19596;BME280;9945;46.010;8.946;2023-04-06T08:11:21;97469.91;;;14.58;37.14
19596;BME280;9945;46.010;8.946;2023-04-06T08:13:48;97471.53;;;14.75;37.70
19596;BME280;9945;46.010;8.946;2023-04-06T08:16:17;97473.81;;;14.95;37.14
19596;BME280;9945;46.010;8.946;2023-04-06T08:18:43;97463.72;;;14.98;37.27
19596;BME280;9945;46.010;8.946;2023-04-06T08:21:11;97458.91;;;15.18;36.29
19596;BME280;9945;46.010;8.946;2023-04-06T08:23:38;97455.41;;;15.26;36.32
19596;BME280;9945;46.010;8.946;2023-04-06T08:26:05;97457.59;;;15.53;34.76
19596;BME280;9945;46.010;8.946;2023-04-06T08:28:32;97460.91;;;15.55;35.69
19596;BME280;9945;46.010;8.946;2023-04-06T08:31:03;97455.88;;;15.29;34.52
19596;BME280;9945;46.010;8.946;2023-04-06T08:33:32;97456.97;;;15.43;33.19
19596;BME280;9945;46.010;8.946;2023-04-06T08:36:07;97453.19;;;15.76;33.32
19596;BME280;9945;46.010;8.946;2023-04-06T08:38:34;97458.31;;;16.01;31.85
19596;BME280;9945;46.010;8.946;2023-04-06T08:41:07;97453.91;;;16.39;30.56
19596;BME280;9945;46.010;8.946;2023-04-06T08:43:41;97451.31;;;16.31;31.05
19596;BME280;9945;46.010;8.946;2023-04-06T08:46:10;97449.94;;;16.57;29.23
19596;BME280;9945;46.010;8.946;2023-04-06T08:48:40;97452.72;;;16.79;28.38
19596;BME280;9945;46.010;8.946;2023-04-06T08:51:08;97444.59;;;16.80;29.77
19596;BME280;9945;46.010;8.946;2023-04-06T08:53:35;97443.16;;;17.07;30.06
19596;BME280;9945;46.010;8.946;2023-04-06T08:56:03;97445.47;;;16.58;30.15
19596;BME280;9945;46.010;8.946;2023-04-06T08:58:34;97446.50;;;16.34;29.90
19596;BME280;9945;46.010;8.946;2023-04-06T09:01:03;97444.59;;;16.66;30.43
19596;BME280;9945;46.010;8.946;2023-04-06T09:03:37;97435.66;;;17.40;29.36
19596;BME280;9945;46.010;8.946;2023-04-06T09:06:07;97439.88;;;17.34;28.79
19596;BME280;9945;46.010;8.946;2023-04-06T09:08:34;97430.63;;;18.45;29.26
19596;BME280;9945;46.010;8.946;2023-04-06T09:11:02;97429.25;;;18.56;27.95
19596;BME280;9945;46.010;8.946;2023-04-06T09:13:29;97427.38;;;20.07;25.83
19596;BME280;9945;46.010;8.946;2023-04-06T09:16:01;97422.44;;;21.09;24.80
19596;BME280;9945;46.010;8.946;2023-04-06T09:18:28;97418.34;;;21.65;23.77
19596;BME280;9945;46.010;8.946;2023-04-06T09:21:00;97421.09;;;22.95;22.71
19596;BME280;9945;46.010;8.946;2023-04-06T09:23:29;97420.66;;;23.71;21.71
19596;BME280;9945;46.010;8.946;2023-04-06T09:26:07;97416.97;;;24.14;21.01
19596;BME280;9945;46.010;8.946;2023-04-06T09:28:45;97408.78;;;25.20;20.52
19596;BME280;9945;46.010;8.946;2023-04-06T09:31:13;97413.84;;;25.45;19.49
19596;BME280;9945;46.010;8.946;2023-04-06T09:33:41;97407.66;;;25.68;19.21
19596;BME280;9945;46.010;8.946;2023-04-06T09:36:09;97407.25;;;26.05;18.38
19596;BME280;9945;46.010;8.946;2023-04-06T09:38:52;97412.84;;;26.48;17.77
19596;BME280;9945;46.010;8.946;2023-04-06T09:41:22;97406.66;;;26.48;16.89
19596;BME280;9945;46.010;8.946;2023-04-06T09:43:49;97407.75;;;27.19;16.94
19596;BME280;9945;46.010;8.946;2023-04-06T09:46:17;97406.16;;;26.84;17.18
19596;BME280;9945;46.010;8.946;2023-04-06T09:48:48;97404.34;;;27.50;16.74
19596;BME280;9945;46.010;8.946;2023-04-06T09:51:18;97402.59;;;27.82;16.19
19596;BME280;9945;46.010;8.946;2023-04-06T09:53:51;97395.31;;;27.56;16.65
19596;BME280;9945;46.010;8.946;2023-04-06T09:56:23;97392.50;;;27.95;16.68
19596;BME280;9945;46.010;8.946;2023-04-06T09:58:55;97393.38;;;26.91;16.85
19596;BME280;9945;46.010;8.946;2023-04-06T10:01:26;97386.69;;;27.54;16.70
19596;BME280;9945;46.010;8.946;2023-04-06T10:03:57;97379.28;;;27.93;16.26
19596;BME280;9945;46.010;8.946;2023-04-06T10:06:32;97380.00;;;27.83;15.85
19596;BME280;9945;46.010;8.946;2023-04-06T10:09:04;97377.00;;;27.80;16.16
19596;BME280;9945;46.010;8.946;2023-04-06T10:11:34;97380.09;;;27.45;16.19
19596;BME280;9945;46.010;8.946;2023-04-06T10:14:01;97376.25;;;27.84;15.41
19596;BME280;9945;46.010;8.946;2023-04-06T10:16:28;97367.16;;;28.49;14.48
19596;BME280;9945;46.010;8.946;2023-04-06T10:19:00;97372.91;;;28.63;15.00
19596;BME280;9945;46.010;8.946;2023-04-06T10:21:29;97368.47;;;28.47;14.64
19596;BME280;9945;46.010;8.946;2023-04-06T10:23:59;97363.13;;;28.94;14.84
19596;BME280;9945;46.010;8.946;2023-04-06T10:26:28;97360.31;;;29.21;14.16
19596;BME280;9945;46.010;8.946;2023-04-06T10:29:02;97354.84;;;29.73;13.69
19596;BME280;9945;46.010;8.946;2023-04-06T10:31:30;97356.28;;;30.41;14.11
19596;BME280;9945;46.010;8.946;2023-04-06T10:33:58;97352.78;;;30.26;13.63
19596;BME280;9945;46.010;8.946;2023-04-06T10:36:27;97345.44;;;30.77;14.42
19596;BME280;9945;46.010;8.946;2023-04-06T10:38:57;97345.31;;;31.28;13.54
19596;BME280;9945;46.010;8.946;2023-04-06T10:41:33;97345.09;;;31.09;13.50
19596;BME280;9945;46.010;8.946;2023-04-06T10:44:01;97345.66;;;31.01;12.97
19596;BME280;9945;46.010;8.946;2023-04-06T10:46:29;97346.72;;;31.10;13.54
19596;BME280;9945;46.010;8.946;2023-04-06T10:48:57;97341.94;;;30.31;13.83
19596;BME280;9945;46.010;8.946;2023-04-06T10:51:27;97333.78;;;30.87;13.86
19596;BME280;9945;46.010;8.946;2023-04-06T10:53:55;97337.16;;;31.38;13.04
19596;BME280;9945;46.010;8.946;2023-04-06T10:56:24;97326.25;;;30.78;11.92
19596;BME280;9945;46.010;8.946;2023-04-06T10:58:55;97328.88;;;31.09;12.36
19596;BME280;9945;46.010;8.946;2023-04-06T11:01:23;97331.03;;;31.02;11.94
19596;BME280;9945;46.010;8.946;2023-04-06T11:03:54;97329.88;;;31.23;12.01
19596;BME280;9945;46.010;8.946;2023-04-06T11:06:22;97327.00;;;30.94;12.69
19596;BME280;9945;46.010;8.946;2023-04-06T11:08:50;97319.00;;;30.18;12.74
19596;BME280;9945;46.010;8.946;2023-04-06T11:11:18;97312.22;;;30.56;13.91
19596;BME280;9945;46.010;8.946;2023-04-06T11:13:48;97310.03;;;30.63;13.17
19596;BME280;9945;46.010;8.946;2023-04-06T11:16:18;97311.50;;;31.15;13.03
19596;BME280;9945;46.010;8.946;2023-04-06T11:18:53;97301.53;;;32.38;11.58
19596;BME280;9945;46.010;8.946;2023-04-06T11:21:31;97305.47;;;33.46;11.07
19596;BME280;9945;46.010;8.946;2023-04-06T11:24:09;97295.44;;;34.02;11.27
19596;BME280;9945;46.010;8.946;2023-04-06T11:26:40;97294.84;;;34.38;9.97
19596;BME280;9945;46.010;8.946;2023-04-06T11:29:09;97295.44;;;35.36;9.93
19596;BME280;9945;46.010;8.946;2023-04-06T11:31:42;97294.94;;;35.70;9.55
19596;BME280;9945;46.010;8.946;2023-04-06T11:34:10;97297.06;;;36.17;9.09
19596;BME280;9945;46.010;8.946;2023-04-06T11:36:40;97289.56;;;36.76;9.17
19596;BME280;9945;46.010;8.946;2023-04-06T11:39:08;97293.31;;;36.27;9.54
19596;BME280;9945;46.010;8.946;2023-04-06T11:41:35;97282.16;;;36.37;9.20
19596;BME280;9945;46.010;8.946;2023-04-06T11:44:03;97284.56;;;37.09;9.17
19596;BME280;9945;46.010;8.946;2023-04-06T11:46:30;97280.34;;;37.03;9.18
19596;BME280;9945;46.010;8.946;2023-04-06T11:49:00;97281.16;;;37.86;9.05
19596;BME280;9945;46.010;8.946;2023-04-06T11:51:27;97278.00;;;39.03;8.69
19596;BME280;9945;46.010;8.946;2023-04-06T11:53:54;97274.25;;;39.99;8.28
19596;BME280;9945;46.010;8.946;2023-04-06T11:56:26;97279.53;;;40.83;7.58
19596;BME280;9945;46.010;8.946;2023-04-06T11:58:54;97269.78;;;40.85;7.53
19596;BME280;9945;46.010;8.946;2023-04-06T12:01:22;97261.47;;;40.03;7.55
19596;BME280;9945;46.010;8.946;2023-04-06T12:03:49;97250.38;;;39.58;7.61
19596;BME280;9945;46.010;8.946;2023-04-06T12:06:18;97250.84;;;39.81;7.93
19596;BME280;9945;46.010;8.946;2023-04-06T12:08:45;97252.19;;;39.96;7.92
19596;BME280;9945;46.010;8.946;2023-04-06T12:11:12;97246.56;;;39.92;8.21
19596;BME280;9945;46.010;8.946;2023-04-06T12:13:39;97240.88;;;39.06;8.15
19596;BME280;9945;46.010;8.946;2023-04-06T12:16:06;97240.16;;;38.58;7.96
19596;BME280;9945;46.010;8.946;2023-04-06T12:18:33;97235.31;;;37.83;8.89
19596;BME280;9945;46.010;8.946;2023-04-06T12:21:00;97231.94;;;36.78;8.80
19596;BME280;9945;46.010;8.946;2023-04-06T12:23:28;97222.06;;;35.61;9.02
19596;BME280;9945;46.010;8.946;2023-04-06T12:25:55;97217.22;;;35.58;9.90
19596;BME280;9945;46.010;8.946;2023-04-06T12:28:22;97218.31;;;35.71;10.00
19596;BME280;9945;46.010;8.946;2023-04-06T12:30:52;97216.19;;;35.46;10.07
19596;BME280;9945;46.010;8.946;2023-04-06T12:33:19;97212.00;;;36.07;10.13
19596;BME280;9945;46.010;8.946;2023-04-06T12:35:46;97208.41;;;35.39;10.02
19596;BME280;9945;46.010;8.946;2023-04-06T12:38:13;97202.13;;;35.52;9.60
19596;BME280;9945;46.010;8.946;2023-04-06T12:40:41;97213.16;;;35.92;9.41
19596;BME280;9945;46.010;8.946;2023-04-06T12:43:08;97202.66;;;34.91;9.84
19596;BME280;9945;46.010;8.946;2023-04-06T12:45:36;97200.44;;;34.93;10.67
19596;BME280;9945;46.010;8.946;2023-04-06T12:48:03;97199.50;;;34.15;10.45
19596;BME280;9945;46.010;8.946;2023-04-06T12:50:30;97193.28;;;32.65;11.56
19596;BME280;9945;46.010;8.946;2023-04-06T12:52:57;97185.75;;;31.46;11.91
19596;BME280;9945;46.010;8.946;2023-04-06T12:55:24;97190.28;;;30.58;12.20
19596;BME280;9945;46.010;8.946;2023-04-06T12:57:53;97184.69;;;28.45;14.31
19596;BME280;9945;46.010;8.946;2023-04-06T13:00:21;97181.19;;;26.85;15.38
19596;BME280;9945;46.010;8.946;2023-04-06T13:02:48;97183.00;;;25.80;15.78
19596;BME280;9945;46.010;8.946;2023-04-06T13:05:15;97172.75;;;24.70;17.14
19596;BME280;9945;46.010;8.946;2023-04-06T13:07:44;97174.59;;;24.18;16.72
19596;BME280;9945;46.010;8.946;2023-04-06T13:10:12;97176.97;;;23.26;17.92
19596;BME280;9945;46.010;8.946;2023-04-06T13:12:39;97172.16;;;22.57;18.21
19596;BME280;9945;46.010;8.946;2023-04-06T13:15:08;97166.53;;;22.47;18.43
19596;BME280;9945;46.010;8.946;2023-04-06T13:17:35;97169.94;;;21.99;19.60
19596;BME280;9945;46.010;8.946;2023-04-06T13:20:03;97167.06;;;22.01;19.29